createdAt,value
2018-03-25T00:01:44.404Z,20.50
2018-03-25T00:04:11.078Z,19.67
2018-03-25T00:06:37.714Z,20.57
2018-03-25T00:09:04.335Z,19.63
2018-03-25T00:11:31.097Z,20.33
2018-03-25T00:13:58.657Z,19.27
2018-03-25T00:16:25.311Z,19.30
2018-03-25T00:18:51.982Z,21.00
2018-03-25T00:21:18.686Z,20.93
2018-03-25T00:23:45.341Z,20.73
2018-03-25T00:26:12.473Z,19.90
2018-03-25T00:28:39.115Z,20.00
2018-03-25T00:31:05.888Z,20.47
2018-03-25T00:33:32.502Z,21.30
2018-03-25T00:35:59.336Z,21.73
2018-03-25T00:38:26.082Z,19.80
2018-03-25T00:40:52.789Z,22.90
2018-03-25T00:43:19.590Z,20.30
2018-03-25T00:45:46.239Z,20.27
2018-03-25T00:48:12.925Z,21.80
2018-03-25T00:50:39.564Z,20.90
2018-03-25T00:53:06.206Z,21.07
2018-03-25T00:55:32.859Z,20.20
2018-03-25T00:57:59.496Z,22.27
2018-03-25T01:00:26.160Z,20.90
2018-03-25T01:02:53.675Z,22.13
2018-03-25T01:05:20.328Z,21.07
2018-03-25T01:07:47.140Z,22.47
2018-03-25T01:10:13.775Z,21.80
2018-03-25T01:12:40.397Z,21.10
2018-03-25T01:15:07.047Z,21.30
2018-03-25T01:17:33.710Z,21.83
2018-03-25T01:20:00.970Z,23.50
2018-03-25T01:22:27.654Z,23.67
2018-03-25T01:24:54.559Z,21.83
2018-03-25T01:27:21.297Z,20.60
2018-03-25T01:29:47.922Z,23.53
2018-03-25T01:32:14.847Z,21.67
2018-03-25T01:34:41.460Z,22.27
2018-03-25T01:37:08.101Z,21.63
2018-03-25T01:39:34.731Z,21.73
2018-03-25T01:42:01.508Z,21.40
2018-03-25T01:44:28.162Z,19.67
2018-03-25T01:46:54.812Z,20.20
2018-03-25T01:49:21.560Z,20.73
2018-03-25T01:51:48.199Z,19.67
2018-03-25T01:54:15.080Z,20.37
2018-03-25T01:56:41.704Z,19.27
2018-03-25T01:59:08.360Z,21.13
2018-03-25T02:01:35.022Z,20.80
2018-03-25T02:04:01.689Z,20.53
2018-03-25T02:06:28.346Z,21.00
2018-03-25T02:08:54.993Z,21.50
2018-03-25T02:11:21.642Z,20.87
2018-03-25T02:13:48.272Z,20.17
2018-03-25T02:16:14.990Z,20.50
2018-03-25T02:18:41.598Z,20.90
2018-03-25T02:21:08.228Z,20.97
2018-03-25T02:23:34.899Z,23.00
2018-03-25T02:26:01.544Z,21.70
2018-03-25T02:28:28.182Z,20.50
2018-03-25T02:30:54.866Z,21.07
2018-03-25T02:33:21.532Z,20.07
2018-03-25T02:35:48.156Z,19.30
2018-03-25T02:38:15.647Z,17.90
2018-03-25T02:40:42.319Z,18.83
2018-03-25T02:43:08.957Z,18.90
2018-03-25T02:45:35.642Z,18.10
2018-03-25T02:48:02.315Z,20.60
2018-03-25T02:50:28.957Z,18.80
2018-03-25T02:52:55.629Z,18.80
2018-03-25T02:55:22.274Z,18.37
2018-03-25T02:57:48.937Z,19.90
2018-03-25T03:00:16.593Z,19.70
2018-03-25T03:02:43.210Z,19.93
2018-03-25T03:05:09.854Z,20.00
2018-03-25T03:07:36.503Z,18.30
2018-03-25T03:10:03.160Z,19.53
2018-03-25T03:12:29.829Z,20.33
2018-03-25T03:14:56.493Z,20.10
2018-03-25T03:17:23.205Z,21.40
2018-03-25T03:19:49.849Z,19.87
2018-03-25T03:22:16.499Z,19.93
2018-03-25T03:24:43.131Z,20.40
2018-03-25T03:27:09.847Z,21.47
2018-03-25T03:29:36.499Z,21.73
2018-03-25T03:32:03.497Z,21.00
2018-03-25T03:34:30.137Z,20.20
2018-03-25T03:36:57.090Z,20.87
2018-03-25T03:39:23.729Z,21.77
2018-03-25T03:41:50.426Z,20.90
2018-03-25T03:44:17.070Z,24.23
2018-03-25T03:46:43.694Z,21.97
2018-03-25T03:49:10.326Z,23.33
2018-03-25T03:51:37.137Z,21.00
2018-03-25T03:54:03.766Z,22.10
2018-03-25T03:56:30.442Z,22.27
2018-03-25T03:58:57.076Z,21.30
2018-03-25T04:01:24.566Z,21.10
2018-03-25T04:03:51.195Z,20.90
2018-03-25T04:06:17.834Z,22.97
2018-03-25T04:08:44.537Z,20.87
2018-03-25T04:11:11.171Z,19.87
2018-03-25T04:13:37.836Z,19.40
2018-03-25T04:16:04.522Z,20.60
2018-03-25T04:18:31.944Z,20.40
2018-03-25T04:20:58.584Z,21.10
2018-03-25T04:23:25.237Z,18.80
2018-03-25T04:25:51.853Z,19.00
2018-03-25T04:28:18.500Z,21.00
2018-03-25T04:30:45.206Z,21.50
2018-03-25T04:33:11.826Z,20.03
2018-03-25T04:35:38.468Z,20.13
2018-03-25T04:38:05.156Z,21.93
2018-03-25T04:40:31.811Z,21.23
2018-03-25T04:42:58.434Z,20.63
2018-03-25T04:45:25.090Z,20.73
2018-03-25T04:47:51.753Z,18.97
2018-03-25T04:50:18.776Z,20.00
2018-03-25T04:52:45.752Z,19.87
2018-03-25T04:55:13.313Z,20.00
2018-03-25T04:57:39.934Z,18.77
2018-03-25T05:00:06.583Z,20.20
2018-03-25T05:02:33.243Z,20.27
2018-03-25T05:05:00.235Z,19.20
2018-03-25T05:07:26.863Z,20.70
2018-03-25T05:09:53.532Z,19.63
2018-03-25T05:12:20.207Z,20.17
2018-03-25T05:14:46.827Z,18.43
2018-03-25T05:17:13.485Z,20.83
2018-03-25T05:19:40.128Z,20.03
2018-03-25T05:22:06.798Z,21.70
2018-03-25T05:24:33.468Z,19.43
2018-03-25T05:27:00.116Z,20.00
2018-03-25T05:29:26.753Z,19.27
2018-03-25T05:31:53.420Z,19.50
2018-03-25T05:34:20.067Z,18.13
2018-03-25T05:36:46.714Z,18.40
2018-03-25T05:39:13.370Z,17.37
2018-03-25T05:41:39.994Z,18.63
2018-03-25T05:44:06.628Z,16.67
2018-03-25T05:46:33.275Z,16.60
2018-03-25T05:48:59.922Z,19.10
2018-03-25T05:51:27.459Z,16.80
2018-03-25T05:53:54.076Z,16.77
2018-03-25T05:56:20.813Z,16.73
2018-03-25T05:58:47.569Z,18.27
2018-03-25T06:01:14.268Z,19.63
2018-03-25T06:03:41.507Z,16.83
2018-03-25T06:06:08.150Z,17.40
2018-03-25T06:08:34.822Z,17.10
2018-03-25T06:11:01.501Z,16.90
2018-03-25T06:13:28.446Z,17.90
2018-03-25T06:15:55.177Z,18.20
2018-03-25T06:18:21.794Z,19.17
2018-03-25T06:20:48.446Z,20.77
2018-03-25T06:23:15.141Z,20.90
2018-03-25T06:25:41.830Z,20.57
2018-03-25T06:28:08.586Z,21.73
2018-03-25T06:30:35.412Z,20.97
2018-03-25T06:33:02.060Z,20.20
2018-03-25T06:35:28.991Z,20.13
2018-03-25T06:37:55.653Z,20.87
2018-03-25T06:40:22.333Z,21.40
2018-03-25T06:42:49.107Z,21.67
2018-03-25T06:45:15.754Z,20.03
2018-03-25T06:47:42.943Z,24.00
2018-03-25T06:50:09.598Z,22.13
2018-03-25T06:52:36.249Z,18.63
2018-03-25T06:55:02.941Z,21.50
2018-03-25T06:57:29.709Z,18.73
2018-03-25T06:59:56.386Z,19.00
2018-03-25T07:02:23.012Z,21.30
2018-03-25T07:04:49.684Z,18.17
2018-03-25T07:07:16.389Z,17.60
2018-03-25T07:09:43.204Z,17.40
2018-03-25T07:12:09.929Z,15.80
2018-03-25T07:14:36.624Z,15.77
2018-03-25T07:17:03.417Z,15.40
2018-03-25T07:19:30.098Z,15.73
2018-03-25T07:21:56.816Z,15.00
2018-03-25T07:24:23.553Z,16.50
2018-03-25T07:26:51.114Z,14.83
2018-03-25T07:29:18.072Z,14.50
2018-03-25T07:31:44.730Z,15.50
2018-03-25T07:34:11.509Z,16.07
2018-03-25T07:36:38.207Z,15.77
2018-03-25T07:39:04.982Z,16.03
2018-03-25T07:41:31.878Z,16.60
2018-03-25T07:43:58.524Z,15.47
2018-03-25T07:46:25.345Z,16.07
2018-03-25T07:48:53.246Z,16.93
2018-03-25T07:51:19.914Z,15.20
2018-03-25T07:53:46.601Z,16.70
2018-03-25T07:56:13.245Z,17.63
2018-03-25T07:58:39.997Z,16.80
2018-03-25T08:01:07.521Z,15.60
2018-03-25T08:03:34.281Z,14.90
2018-03-25T08:06:00.990Z,18.20
2018-03-25T08:08:27.673Z,15.80
2018-03-25T08:10:54.366Z,17.97
2018-03-25T08:13:21.397Z,17.67
2018-03-25T08:15:48.358Z,17.87
2018-03-25T08:18:15.108Z,18.43
2018-03-25T08:20:41.946Z,17.23
2018-03-25T08:23:08.727Z,17.30
2018-03-25T08:25:35.368Z,17.60
2018-03-25T08:28:02.278Z,19.33
2018-03-25T08:30:29.272Z,17.97
2018-03-25T08:32:55.949Z,18.53
2018-03-25T08:35:22.924Z,18.97
2018-03-25T08:37:49.604Z,19.33
2018-03-25T08:40:16.440Z,19.07
2018-03-25T08:42:44.336Z,19.53
2018-03-25T08:45:11.118Z,20.03
2018-03-25T08:47:37.864Z,18.87
2018-03-25T08:50:05.043Z,18.53
2018-03-25T08:52:33.550Z,19.83
2018-03-25T08:55:00.310Z,20.83
2018-03-25T08:57:27.319Z,21.60
2018-03-25T08:59:54.079Z,21.63
2018-03-25T09:02:20.923Z,22.20
2018-03-25T09:04:47.766Z,20.43
2018-03-25T09:07:15.526Z,20.27
2018-03-25T09:09:42.250Z,20.87
2018-03-25T09:12:08.900Z,20.30
2018-03-25T09:14:35.932Z,19.30
2018-03-25T09:17:03.130Z,21.63
2018-03-25T09:19:30.555Z,19.27
2018-03-25T09:21:57.295Z,20.40
2018-03-25T09:24:23.923Z,23.73
2018-03-25T09:26:50.666Z,22.60
2018-03-25T09:29:17.399Z,22.60
2018-03-25T09:31:44.055Z,23.80
2018-03-25T09:34:10.873Z,23.70
2018-03-25T09:36:37.755Z,22.63
2018-03-25T09:39:04.498Z,24.33
2018-03-25T09:41:31.278Z,22.93
2018-03-25T09:43:58.009Z,24.17
2018-03-25T09:46:24.727Z,24.23
2018-03-25T09:48:51.755Z,22.30
2018-03-25T09:51:18.458Z,19.77
2018-03-25T09:53:45.154Z,21.27
2018-03-25T09:56:11.992Z,22.70
2018-03-25T09:58:38.675Z,24.87
2018-03-25T10:01:11.021Z,23.93
2018-03-25T10:03:37.758Z,22.67
2018-03-25T10:06:04.441Z,22.40
2018-03-25T10:08:31.123Z,21.70
2018-03-25T10:10:57.986Z,21.13
2018-03-25T10:13:24.699Z,19.53
2018-03-25T10:15:51.810Z,21.30
2018-03-25T10:18:18.575Z,22.30
2018-03-25T10:20:45.254Z,21.90
2018-03-25T10:23:13.563Z,21.57
2018-03-25T10:25:40.431Z,21.67
2018-03-25T10:28:07.186Z,21.63
2018-03-25T10:30:34.171Z,22.43
2018-03-25T10:33:00.868Z,22.70
2018-03-25T10:35:27.514Z,21.37
2018-03-25T10:37:54.202Z,20.20
2018-03-25T10:40:20.926Z,20.53
2018-03-25T10:42:47.593Z,21.03
2018-03-25T10:45:14.247Z,20.13
2018-03-25T10:47:41.079Z,19.53
2018-03-25T10:50:07.802Z,21.90
2018-03-25T10:52:34.583Z,20.70
2018-03-25T10:55:01.266Z,22.57
2018-03-25T10:57:28.106Z,21.80
2018-03-25T10:59:54.760Z,24.00
2018-03-25T11:02:21.497Z,22.40
2018-03-25T11:04:48.172Z,22.40
2018-03-25T11:07:14.869Z,22.33
2018-03-25T11:09:41.528Z,20.87
2018-03-25T11:12:08.301Z,23.70
2018-03-25T11:14:35.031Z,23.33
2018-03-25T11:17:01.725Z,23.40
2018-03-25T11:19:28.348Z,20.20
2018-03-25T11:21:55.848Z,22.10
2018-03-25T11:24:23.661Z,22.30
2018-03-25T11:26:50.367Z,23.97
2018-03-25T11:29:17.072Z,23.60
2018-03-25T11:31:43.774Z,21.50
2018-03-25T11:34:10.481Z,23.10
2018-03-25T11:36:37.171Z,24.70
2018-03-25T11:39:03.877Z,24.30
2018-03-25T11:41:30.588Z,24.07
2018-03-25T11:43:57.238Z,23.20
2018-03-25T11:46:24.054Z,23.23
2018-03-25T11:48:50.790Z,22.37
2018-03-25T11:51:17.502Z,23.33
2018-03-25T11:53:44.235Z,23.03
2018-03-25T11:56:10.889Z,23.00
2018-03-25T11:58:37.644Z,22.77
2018-03-25T12:01:04.335Z,24.10
2018-03-25T12:03:31.108Z,23.20
2018-03-25T12:05:57.828Z,23.90
2018-03-25T12:08:24.495Z,22.47
2018-03-25T12:10:51.198Z,22.80
2018-03-25T12:13:17.892Z,23.70
2018-03-25T12:15:44.549Z,22.03
2018-03-25T12:18:11.266Z,21.63
2018-03-25T12:20:38.235Z,19.97
2018-03-25T12:23:04.892Z,18.40
2018-03-25T12:25:31.838Z,19.10
2018-03-25T12:27:58.551Z,18.50
2018-03-25T12:30:25.290Z,18.40
2018-03-25T12:32:52.037Z,18.60
2018-03-25T12:35:18.794Z,19.47
2018-03-25T12:37:45.515Z,20.30
2018-03-25T12:40:12.235Z,20.57
2018-03-25T12:42:38.991Z,19.20
2018-03-25T12:45:05.778Z,17.23
2018-03-25T12:47:32.454Z,17.97
2018-03-25T12:49:59.167Z,19.93
2018-03-25T12:52:25.884Z,18.53
2018-03-25T12:54:52.577Z,18.97
2018-03-25T12:57:19.451Z,17.30
2018-03-25T12:59:46.415Z,18.13
2018-03-25T13:02:13.126Z,17.80
2018-03-25T13:04:39.795Z,17.00
2018-03-25T13:07:06.508Z,18.20
2018-03-25T13:09:33.152Z,18.40
2018-03-25T13:11:59.874Z,20.17
2018-03-25T13:14:26.728Z,19.33
2018-03-25T13:16:53.376Z,18.43
2018-03-25T13:19:20.078Z,19.53
2018-03-25T13:21:46.912Z,18.27
2018-03-25T13:24:13.546Z,18.00
2018-03-25T13:26:40.214Z,18.63
2018-03-25T13:29:07.000Z,18.27
2018-03-25T13:31:33.643Z,16.57
2018-03-25T13:34:00.311Z,17.93
2018-03-25T13:36:27.094Z,14.37
2018-03-25T13:38:53.810Z,16.07
2018-03-25T13:41:20.490Z,15.53
2018-03-25T13:43:47.116Z,12.37
2018-03-25T13:46:13.792Z,12.10
2018-03-25T13:48:40.455Z,12.83
2018-03-25T13:51:07.486Z,10.23
2018-03-25T13:53:34.638Z,11.70
2018-03-25T13:56:01.356Z,12.27
2018-03-25T13:58:28.108Z,11.53
2018-03-25T14:00:55.064Z,13.87
2018-03-25T14:03:21.764Z,12.13
2018-03-25T14:05:48.521Z,13.17
2018-03-25T14:08:15.207Z,12.20
2018-03-25T14:10:42.036Z,12.43
2018-03-25T14:13:08.809Z,11.93
2018-03-25T14:15:35.490Z,13.07
2018-03-25T14:18:02.161Z,14.43
2018-03-25T14:20:28.796Z,13.00
2018-03-25T14:22:55.527Z,13.50
2018-03-25T14:25:22.188Z,14.17
2018-03-25T14:27:48.875Z,13.43
2018-03-25T14:30:15.945Z,13.50
2018-03-25T14:32:42.614Z,13.03
2018-03-25T14:35:09.290Z,14.23
2018-03-25T14:37:35.965Z,13.70
2018-03-25T14:40:02.705Z,12.70
2018-03-25T14:42:29.418Z,14.10
2018-03-25T14:44:56.239Z,14.30
2018-03-25T14:47:23.244Z,12.23
2018-03-25T14:49:50.165Z,14.30
2018-03-25T14:52:16.883Z,14.40
2018-03-25T14:54:43.630Z,13.77
2018-03-25T14:57:12.200Z,14.30
2018-03-25T14:59:38.861Z,13.97
2018-03-25T15:02:05.744Z,15.47
2018-03-25T15:04:32.578Z,14.13
2018-03-25T15:07:00.080Z,15.30
2018-03-25T15:09:26.826Z,14.70
2018-03-25T15:11:53.541Z,14.37
2018-03-25T15:14:20.245Z,14.30
2018-03-25T15:16:46.920Z,14.80
2018-03-25T15:19:13.699Z,14.00
2018-03-25T15:21:40.365Z,14.40
2018-03-25T15:24:07.074Z,15.43
2018-03-25T15:26:33.737Z,13.37
2018-03-25T15:29:00.397Z,14.43
2018-03-25T15:31:27.108Z,13.70
2018-03-25T15:33:53.771Z,13.70
2018-03-25T15:36:20.540Z,14.83
2018-03-25T15:38:47.421Z,13.37
2018-03-25T15:41:14.065Z,12.80
2018-03-25T15:43:40.997Z,13.80
2018-03-25T15:46:07.680Z,14.30
2018-03-25T15:48:34.310Z,14.90
2018-03-25T15:51:01.075Z,14.60
2018-03-25T15:53:27.646Z,13.73
2018-03-25T15:55:55.128Z,14.90
2018-03-25T15:58:21.918Z,13.80
2018-03-25T16:00:49.077Z,15.43
2018-03-25T16:03:16.549Z,15.10
2018-03-25T16:05:43.868Z,15.17
2018-03-25T16:08:13.863Z,16.20
2018-03-25T16:10:40.968Z,16.23
2018-03-25T16:13:07.757Z,16.80
2018-03-25T16:15:34.511Z,16.40
2018-03-25T16:18:01.491Z,17.20
2018-03-25T16:20:28.333Z,16.80
2018-03-25T16:22:55.029Z,18.50
2018-03-25T16:25:21.806Z,17.20
2018-03-25T16:27:48.449Z,16.27
2018-03-25T16:30:15.359Z,16.30
2018-03-25T16:32:42.196Z,15.70
2018-03-25T16:35:08.939Z,15.43
2018-03-25T16:37:36.139Z,17.17
2018-03-25T16:40:02.878Z,15.90
2018-03-25T16:42:30.962Z,16.10
2018-03-25T16:44:57.637Z,16.67
2018-03-25T16:47:24.332Z,17.67
2018-03-25T16:49:51.312Z,16.33
2018-03-25T16:52:18.076Z,16.13
2018-03-25T16:54:44.868Z,16.83
2018-03-25T16:57:11.599Z,16.67
2018-03-25T16:59:38.294Z,15.70
2018-03-25T17:02:04.994Z,15.93
2018-03-25T17:04:31.631Z,17.17
2018-03-25T17:06:58.355Z,18.10
2018-03-25T17:09:24.996Z,17.00
2018-03-25T17:11:51.657Z,16.90
2018-03-25T17:14:18.320Z,17.00
2018-03-25T17:16:45.041Z,16.70
2018-03-25T17:19:11.711Z,16.77
2018-03-25T17:21:38.437Z,16.30
2018-03-25T17:24:05.155Z,17.20
2018-03-25T17:26:31.884Z,17.10
2018-03-25T17:28:58.679Z,17.03
2018-03-25T17:31:25.390Z,16.27
2018-03-25T17:33:52.126Z,15.30
2018-03-25T17:36:18.825Z,18.07
2018-03-25T17:38:45.507Z,16.37
2018-03-25T17:41:12.253Z,17.20
2018-03-25T17:43:38.964Z,15.83
2018-03-25T17:46:05.991Z,16.80
2018-03-25T17:48:32.702Z,15.27
2018-03-25T17:50:59.407Z,15.37
2018-03-25T17:53:26.218Z,16.20
2018-03-25T17:55:52.876Z,16.60
2018-03-25T17:58:19.537Z,14.73
2018-03-25T18:00:46.199Z,15.67
2018-03-25T18:03:12.951Z,17.60
2018-03-25T18:05:39.901Z,18.10
2018-03-25T18:08:07.539Z,16.87
2018-03-25T18:10:34.453Z,18.20
2018-03-25T18:13:01.496Z,18.10
2018-03-25T18:15:29.377Z,18.67
2018-03-25T18:17:56.084Z,18.97
2018-03-25T18:20:22.790Z,19.67
2018-03-25T18:22:49.473Z,18.13
2018-03-25T18:25:16.518Z,18.80
2018-03-25T18:27:43.228Z,20.17
2018-03-25T18:30:13.142Z,18.67
2018-03-25T18:32:40.165Z,17.97
2018-03-25T18:37:44.552Z,19.10
2018-03-25T18:40:19.632Z,20.23
2018-03-25T18:42:51.500Z,19.30
2018-03-25T18:45:20.470Z,20.60
2018-03-25T18:47:51.686Z,20.17
2018-03-25T18:50:32.489Z,21.13
2018-03-25T18:53:02.515Z,20.27
2018-03-25T18:55:29.803Z,20.03
2018-03-25T18:57:59.461Z,20.97
2018-03-25T19:02:58.788Z,19.23
2018-03-25T19:05:36.456Z,19.57
2018-03-25T19:13:29.334Z,19.47
2018-03-25T19:15:56.687Z,19.47
2018-03-25T19:18:23.686Z,19.80
2018-03-25T19:20:50.599Z,20.80
2018-03-25T19:23:25.274Z,22.00
2018-03-25T19:25:52.493Z,22.63
2018-03-25T19:28:20.180Z,20.83
2018-03-25T19:30:47.154Z,22.13
2018-03-25T19:33:18.498Z,19.47
2018-03-25T19:35:45.226Z,21.60
2018-03-25T19:38:12.114Z,20.30
2018-03-25T19:40:39.009Z,21.00
2018-03-25T19:43:09.409Z,21.50
2018-03-25T19:45:36.244Z,20.40
2018-03-25T19:48:03.444Z,20.20
2018-03-25T19:50:31.374Z,19.93
2018-03-25T19:52:58.606Z,19.27
2018-03-25T19:55:25.570Z,20.17
2018-03-25T19:57:52.619Z,18.00
2018-03-25T20:00:19.405Z,20.20
2018-03-25T20:02:46.171Z,18.67
2018-03-25T20:05:12.878Z,18.90
2018-03-25T20:07:39.623Z,18.20
2018-03-25T20:10:06.883Z,20.70
2018-03-25T20:12:33.793Z,19.77
2018-03-25T20:15:00.552Z,19.20
2018-03-25T20:17:27.486Z,18.17
2018-03-25T20:19:54.168Z,20.00
2018-03-25T20:22:20.928Z,19.23
2018-03-25T20:24:48.131Z,18.03
2018-03-25T20:27:15.097Z,19.70
2018-03-25T20:29:41.804Z,21.10
2018-03-25T20:32:09.239Z,18.87
2018-03-25T20:34:36.041Z,18.93
2018-03-25T20:37:03.706Z,19.93
2018-03-25T20:39:31.331Z,18.83
2018-03-25T20:41:58.197Z,19.80
2018-03-25T20:44:25.575Z,18.50
2018-03-25T20:46:52.304Z,18.73
2018-03-25T20:49:19.086Z,20.00
2018-03-25T20:51:45.802Z,20.40
2018-03-25T20:54:12.965Z,19.30
2018-03-25T20:56:39.852Z,18.17
2018-03-25T20:59:06.566Z,19.07
2018-03-25T21:01:33.303Z,19.77
2018-03-25T21:04:00.032Z,19.67
2018-03-25T21:06:26.809Z,19.73
2018-03-25T21:08:53.566Z,19.70
2018-03-25T21:11:20.290Z,19.80
2018-03-25T21:13:47.020Z,19.27
2018-03-25T21:16:14.762Z,18.87
2018-03-25T21:18:41.844Z,18.20
2018-03-25T21:21:09.201Z,18.80
2018-03-25T21:23:35.866Z,17.00
2018-03-25T21:26:03.327Z,18.17
2018-03-25T21:28:30.562Z,19.03
2018-03-25T21:30:58.536Z,17.83
2018-03-25T21:33:25.239Z,19.17
2018-03-25T21:35:52.153Z,16.83
2018-03-25T21:38:19.228Z,17.23
2018-03-25T21:40:45.928Z,17.20
2018-03-25T21:43:12.753Z,16.00
2018-03-25T21:45:39.403Z,15.80
2018-03-25T21:48:06.097Z,15.60
2018-03-25T21:50:32.770Z,16.90
2018-03-25T21:52:59.507Z,16.13
2018-03-25T21:55:26.295Z,14.47
2018-03-25T21:57:52.992Z,16.67
2018-03-25T22:00:19.722Z,16.80
2018-03-25T22:02:46.386Z,17.40
2018-03-25T22:05:13.178Z,17.27
2018-03-25T22:07:40.114Z,16.90
2018-03-25T22:10:06.787Z,14.93
2018-03-25T22:12:33.620Z,15.13
2018-03-25T22:15:00.340Z,15.00
2018-03-25T22:17:27.118Z,15.40
2018-03-25T22:19:54.070Z,14.33
2018-03-25T22:22:20.769Z,17.67
2018-03-25T22:24:47.731Z,15.77
2018-03-25T22:27:14.482Z,15.50
2018-03-25T22:29:41.225Z,15.33
2018-03-25T22:32:07.874Z,14.47
2018-03-25T22:34:35.449Z,14.40
2018-03-25T22:37:02.132Z,16.07
2018-03-25T22:39:28.787Z,14.93
2018-03-25T22:41:55.593Z,15.43
2018-03-25T22:44:22.248Z,15.40
2018-03-25T22:46:49.609Z,14.77
2018-03-25T22:49:18.080Z,14.37
2018-03-25T22:51:44.819Z,14.30
2018-03-25T22:54:11.648Z,13.83
2018-03-25T22:56:38.352Z,15.10
2018-03-25T22:59:04.980Z,14.10
2018-03-25T23:01:31.795Z,14.10
2018-03-25T23:03:58.453Z,14.90
2018-03-25T23:06:25.099Z,13.63
2018-03-25T23:08:51.799Z,15.20
2018-03-25T23:11:18.450Z,15.07
2018-03-25T23:13:45.204Z,13.67
2018-03-25T23:16:11.889Z,14.27
2018-03-25T23:18:38.576Z,13.33
2018-03-25T23:21:05.287Z,12.80
2018-03-25T23:23:32.212Z,14.00
2018-03-25T23:25:58.872Z,12.87
2018-03-25T23:28:25.525Z,13.87
2018-03-25T23:30:52.455Z,15.03
2018-03-25T23:33:19.171Z,14.57
2018-03-25T23:35:45.869Z,13.30
2018-03-25T23:38:12.651Z,14.40
2018-03-25T23:40:39.307Z,14.97
2018-03-25T23:43:05.962Z,15.40
2018-03-25T23:45:32.722Z,13.73
2018-03-25T23:47:59.359Z,14.93
2018-03-25T23:50:25.991Z,16.17
2018-03-25T23:52:52.731Z,15.50
2018-03-25T23:55:19.380Z,15.50
2018-03-25T23:57:46.064Z,15.80
